Time;durP1;ratioP1;P1;durP2;ratioP2;P2;SDS_P1;SDS_P2;PMS_P1;PMS_P2;Temp;Humidity;BMP_temperature;BMP_pressure;BME280_temperature;BME280_humidity;BME280_pressure;Samples;Min_cycle;Max_cycle;Signal;HPM_P1;HPM_P2
2022/01/20 00:03:30;;;;;;;32.60;21.10;;;6.50;64.70;;;;;;5090057;28;20043;-63
2022/01/20 00:09:09;;;;;;;30.65;21.27;;;6.60;64.70;;;;;;5092243;28;20028;-64
2022/01/20 00:28:10;;;;;;;27.65;17.92;;;6.60;64.30;;;;;;5070192;28;19943;-63
2022/01/20 00:30:47;;;;;;;25.95;17.75;;;6.60;64.30;;;;;;5071505;28;20113;-63
2022/01/20 00:33:19;;;;;;;25.33;17.10;;;6.50;64.40;;;;;;5054719;28;20115;-64
2022/01/20 00:38:20;;;;;;;27.80;16.10;;;6.50;64.50;;;;;;5070471;28;20040;-63
2022/01/20 00:40:46;;;;;;;25.55;15.85;;;6.50;64.40;;;;;;5055135;28;20032;-63
2022/01/20 00:43:13;;;;;;;23.27;15.80;;;6.50;64.50;;;;;;5071055;28;20028;-63
2022/01/20 00:45:39;;;;;;;23.63;16.33;;;6.50;64.40;;;;;;5071053;28;20021;-64
2022/01/20 00:48:24;;;;;;;22.73;15.85;;;6.50;64.40;;;;;;5073688;28;20039;-63
2022/01/20 00:50:50;;;;;;;20.08;14.77;;;6.50;64.30;;;;;;5049842;28;20531;-65
2022/01/20 00:53:17;;;;;;;24.88;16.15;;;6.50;64.30;;;;;;5037008;28;20033;-61
2022/01/20 00:55:42;;;;;;;22.80;15.52;;;6.50;64.30;;;;;;5054848;28;20036;-64
2022/01/20 00:58:08;;;;;;;23.65;15.77;;;6.50;64.20;;;;;;5054880;28;20032;-63
2022/01/20 01:00:35;;;;;;;25.60;16.45;;;6.50;64.10;;;;;;5036939;28;20029;-64
2022/01/20 01:03:00;;;;;;;24.52;15.68;;;6.50;64.00;;;;;;5055596;28;20546;-63
2022/01/20 01:05:27;;;;;;;24.02;15.60;;;6.50;63.90;;;;;;5054392;28;20107;-63
2022/01/20 01:07:55;;;;;;;24.35;14.00;;;6.60;63.90;;;;;;5074098;28;20036;-64
2022/01/20 01:10:23;;;;;;;21.35;13.80;;;6.50;63.80;;;;;;5072336;28;20095;-62
2022/01/20 01:15:21;;;;;;;22.90;13.50;;;6.50;63.80;;;;;;5072653;28;20023;-62
2022/01/20 01:20:45;;;;;;;21.65;13.18;;;6.60;63.60;;;;;;5072782;28;20095;-63
2022/01/20 01:23:12;;;;;;;21.27;12.93;;;6.60;63.60;;;;;;5055693;28;20028;-63
2022/01/20 01:25:37;;;;;;;21.35;13.43;;;6.50;63.50;;;;;;5071340;28;20170;-63
2022/01/20 01:28:03;;;;;;;17.48;12.07;;;6.60;63.50;;;;;;5072507;28;20420;-65
2022/01/20 01:30:50;;;;;;;19.98;12.63;;;6.60;63.30;;;;;;5071632;28;20029;-65
2022/01/20 01:33:17;;;;;;;18.77;12.27;;;6.60;63.30;;;;;;5071490;28;20033;-64
2022/01/20 01:35:43;;;;;;;22.20;13.25;;;6.60;63.20;;;;;;5071089;28;20028;-63
2022/01/20 01:40:38;;;;;;;22.10;12.68;;;6.60;63.00;;;;;;5072049;28;20037;-62
2022/01/20 01:43:12;;;;;;;18.95;12.98;;;6.70;63.00;;;;;;5070500;28;20021;-62
2022/01/20 01:45:42;;;;;;;19.65;12.15;;;6.70;63.00;;;;;;5071398;28;20047;-65
2022/01/20 01:48:08;;;;;;;17.08;11.45;;;6.70;62.80;;;;;;5071182;28;20056;-64
2022/01/20 01:50:34;;;;;;;15.90;11.68;;;6.70;62.60;;;;;;5051442;28;20033;-63
2022/01/20 01:53:04;;;;;;;19.40;11.15;;;6.70;62.60;;;;;;5071011;28;20047;-63
2022/01/20 01:55:32;;;;;;;17.60;10.85;;;6.70;62.70;;;;;;5071759;28;20025;-63
2022/01/20 01:57:58;;;;;;;16.38;11.38;;;6.70;62.50;;;;;;5069471;28;20020;-63
2022/01/20 02:00:24;;;;;;;16.88;11.88;;;6.70;62.50;;;;;;5071453;28;20055;-62
2022/01/20 02:02:50;;;;;;;16.60;10.98;;;6.80;62.40;;;;;;5071604;28;20473;-63
2022/01/20 02:05:18;;;;;;;18.85;11.75;;;6.80;62.30;;;;;;5071166;28;20036;-63
2022/01/20 02:18:49;;;;;;;17.27;10.32;;;6.90;62.00;;;;;;5070169;28;20027;-63
2022/01/20 02:21:15;;;;;;;14.40;10.55;;;6.90;62.00;;;;;;5070700;28;20040;-62
2022/01/20 02:23:43;;;;;;;16.20;11.23;;;7.00;62.10;;;;;;5070623;28;20029;-65
2022/01/20 02:26:09;;;;;;;18.52;10.52;;;7.00;62.70;;;;;;5071894;28;20035;-63
2022/01/20 02:28:35;;;;;;;15.77;10.23;;;7.00;61.80;;;;;;5070820;28;20039;-63
2022/01/20 02:31:01;;;;;;;13.43;9.63;;;7.20;61.70;;;;;;5052427;28;20469;-63
2022/01/20 02:33:29;;;;;;;15.93;10.38;;;7.10;61.40;;;;;;5069841;28;20107;-63
2022/01/20 02:36:03;;;;;;;13.20;8.93;;;7.20;61.40;;;;;;5053611;28;20051;-64
2022/01/20 02:38:47;;;;;;;14.52;9.55;;;7.00;61.40;;;;;;5070513;28;20380;-64
2022/01/20 02:46:42;;;;;;;14.30;9.25;;;6.90;61.50;;;;;;5070909;28;20575;-64
2022/01/20 02:49:13;;;;;;;11.60;8.05;;;6.90;61.60;;;;;;5073019;28;20099;-64
2022/01/20 02:51:45;;;;;;;11.77;8.02;;;6.90;61.20;;;;;;5071254;28;20119;-64
2022/01/20 02:54:11;;;;;;;15.15;9.00;;;6.90;61.30;;;;;;5072279;28;20032;-64
2022/01/20 02:56:37;;;;;;;13.02;7.80;;;6.90;61.30;;;;;;5069700;28;20510;-63
2022/01/20 02:59:02;;;;;;;10.85;7.00;;;6.90;61.30;;;;;;5072227;28;20036;-63
2022/01/20 03:01:28;;;;;;;13.63;7.65;;;6.90;61.20;;;;;;5070811;28;20472;-62
2022/01/20 03:04:02;;;;;;;12.68;7.68;;;6.90;61.10;;;;;;5072418;28;20443;-63
2022/01/20 03:06:28;;;;;;;10.85;7.43;;;6.90;61.00;;;;;;5071161;28;20056;-63
2022/01/20 03:08:54;;;;;;;12.00;7.15;;;7.00;61.10;;;;;;5072041;28;20067;-64
2022/01/20 03:11:20;;;;;;;9.82;6.68;;;7.00;60.70;;;;;;5070035;28;20023;-64
2022/01/20 03:13:45;;;;;;;10.88;6.95;;;7.00;60.40;;;;;;5071416;28;20632;-64
2022/01/20 03:16:11;;;;;;;11.90;6.80;;;7.00;60.50;;;;;;5071599;28;20115;-64
2022/01/20 03:18:38;;;;;;;9.68;6.82;;;7.00;59.90;;;;;;5070570;28;20055;-64
2022/01/20 03:21:04;;;;;;;9.07;6.10;;;7.10;59.70;;;;;;5053462;28;20037;-63
2022/01/20 03:23:29;;;;;;;10.23;6.22;;;7.20;59.50;;;;;;5070055;28;20028;-62
2022/01/20 03:25:55;;;;;;;11.05;6.57;;;7.20;59.70;;;;;;5033839;28;20037;-64
2022/01/20 03:28:21;;;;;;;9.13;5.95;;;7.20;59.30;;;;;;5059129;28;20044;-64
2022/01/20 03:30:47;;;;;;;9.50;6.50;;;7.20;59.50;;;;;;5071189;28;20029;-63
2022/01/20 03:33:13;;;;;;;9.55;6.57;;;7.20;59.60;;;;;;5053316;28;20107;-64
2022/01/20 03:35:40;;;;;;;10.93;6.50;;;7.30;59.60;;;;;;5052188;28;20414;-63
2022/01/20 03:38:06;;;;;;;10.43;7.63;;;7.30;59.50;;;;;;5071948;28;20094;-63
2022/01/20 03:40:31;;;;;;;11.85;7.25;;;7.30;59.50;;;;;;5052334;28;20028;-63
2022/01/20 03:42:57;;;;;;;9.93;6.57;;;7.30;59.50;;;;;;5070588;28;20099;-64
2022/01/20 03:45:26;;;;;;;10.27;6.63;;;7.40;59.20;;;;;;5069879;28;20032;-64
2022/01/20 03:47:55;;;;;;;8.93;6.07;;;7.40;59.10;;;;;;5070675;28;20036;-64
2022/01/20 03:53:06;;;;;;;9.88;6.80;;;7.40;59.10;;;;;;5068616;28;20035;-65
2022/01/20 03:55:32;;;;;;;11.88;7.18;;;7.40;59.30;;;;;;5070273;28;20020;-61
2022/01/20 03:57:57;;;;;;;10.25;6.32;;;7.40;59.10;;;;;;5053328;28;20045;-64
2022/01/20 04:00:23;;;;;;;10.95;6.82;;;7.50;58.90;;;;;;5069745;28;20100;-63
2022/01/20 04:02:49;;;;;;;11.60;6.72;;;7.40;59.20;;;;;;5058308;28;20056;-62
2022/01/20 04:05:15;;;;;;;11.18;7.07;;;7.40;59.50;;;;;;5070589;28;20102;-63
2022/01/20 04:07:40;;;;;;;11.70;6.70;;;7.50;58.60;;;;;;5070410;28;20024;-64
2022/01/20 04:10:06;;;;;;;11.57;7.00;;;7.50;58.60;;;;;;5052599;28;20459;-64
2022/01/20 04:12:32;;;;;;;10.18;6.40;;;7.60;58.50;;;;;;5070118;28;20036;-60
2022/01/20 04:15:05;;;;;;;11.85;6.70;;;7.50;58.50;;;;;;5089093;28;20477;-64
2022/01/20 04:17:31;;;;;;;8.40;6.00;;;7.50;58.70;;;;;;5089388;28;20044;-60
2022/01/20 04:19:57;;;;;;;10.38;6.82;;;7.50;59.20;;;;;;5089859;28;20097;-62
2022/01/20 04:22:24;;;;;;;10.40;6.80;;;7.60;58.60;;;;;;5090857;28;20029;-63
2022/01/20 04:24:50;;;;;;;10.35;6.82;;;7.60;58.50;;;;;;5090798;28;20179;-64
2022/01/20 04:27:16;;;;;;;11.30;7.10;;;7.60;58.50;;;;;;5089786;28;20487;-63
2022/01/20 04:29:42;;;;;;;9.68;6.78;;;7.60;59.00;;;;;;5089191;28;20462;-63
2022/01/20 04:32:07;;;;;;;9.20;6.57;;;7.60;58.60;;;;;;5090602;28;20025;-64
2022/01/20 04:34:33;;;;;;;9.52;6.22;;;7.60;58.70;;;;;;5088909;28;20465;-61
2022/01/20 04:37:02;;;;;;;8.85;6.40;;;7.60;58.50;;;;;;5090004;28;20448;-64
2022/01/20 04:39:31;;;;;;;8.02;5.72;;;7.60;58.60;;;;;;5091200;28;20165;-63
2022/01/20 04:41:57;;;;;;;9.32;6.63;;;7.60;58.70;;;;;;5090261;28;20470;-63
2022/01/20 04:44:39;;;;;;;11.25;6.13;;;7.60;58.90;;;;;;5090324;28;20050;-64
2022/01/20 04:57:52;;;;;;;8.68;5.50;;;7.60;59.10;;;;;;5090082;28;19967;-64
2022/01/20 05:00:17;;;;;;;10.18;6.50;;;7.60;59.20;;;;;;5091544;28;20098;-62
2022/01/20 05:02:43;;;;;;;8.98;5.97;;;7.60;59.20;;;;;;5090734;28;20047;-62
2022/01/20 05:05:09;;;;;;;10.50;6.55;;;7.70;59.30;;;;;;5090779;28;20027;-63
2022/01/20 05:07:35;;;;;;;10.18;6.18;;;7.60;59.20;;;;;;5091054;28;20066;-60
2022/01/20 05:10:06;;;;;;;8.55;6.03;;;7.60;59.60;;;;;;5091827;28;20024;-64
2022/01/20 05:15:16;;;;;;;;;;;7.70;59.30;;;;;;5092972;28;20074;-63
2022/01/20 05:17:41;;;;;;;7.25;5.53;;;7.70;59.40;;;;;;5090911;28;20318;-63
2022/01/20 05:20:08;;;;;;;9.35;5.90;;;7.60;59.50;;;;;;5093319;28;20028;-63
2022/01/20 05:22:33;;;;;;;8.65;5.70;;;7.60;59.50;;;;;;5085934;28;20433;-61
2022/01/20 05:24:59;;;;;;;9.10;6.32;;;7.60;59.50;;;;;;5093006;28;20107;-63
2022/01/20 05:27:25;;;;;;;7.72;6.03;;;7.60;59.50;;;;;;5092721;28;20400;-63
2022/01/20 05:29:50;;;;;;;8.98;5.50;;;7.60;59.60;;;;;;5091821;28;20035;-64
2022/01/20 05:32:16;;;;;;;7.55;5.10;;;7.60;59.70;;;;;;5092840;28;20225;-63
2022/01/20 05:34:42;;;;;;;10.85;5.43;;;7.50;60.00;;;;;;5090177;28;20534;-63
2022/01/20 05:37:08;;;;;;;7.90;5.32;;;7.50;60.00;;;;;;5090538;28;20489;-63
2022/01/20 05:39:33;;;;;;;9.18;4.78;;;7.50;60.10;;;;;;5089592;28;20040;-64
2022/01/20 05:41:59;;;;;;;8.63;5.45;;;7.50;60.00;;;;;;5091065;28;20434;-62
2022/01/20 05:44:25;;;;;;;9.05;5.25;;;7.50;60.10;;;;;;5091708;28;20028;-64
2022/01/20 05:46:52;;;;;;;9.80;5.65;;;7.50;60.10;;;;;;5091971;28;20031;-65
2022/01/20 05:49:21;;;;;;;8.20;5.30;;;7.50;60.10;;;;;;5093213;28;20016;-65
2022/01/20 05:51:54;;;;;;;11.55;5.45;;;7.60;60.10;;;;;;5090191;28;20070;-65
2022/01/20 05:54:21;;;;;;;7.45;5.15;;;7.60;60.20;;;;;;5092836;28;20024;-63
2022/01/20 05:56:47;;;;;;;7.40;5.32;;;7.60;60.20;;;;;;5086992;28;20039;-63
2022/01/20 05:59:12;;;;;;;8.32;4.82;;;7.50;60.40;;;;;;5088806;28;20024;-66
2022/01/20 06:01:39;;;;;;;8.38;5.72;;;7.50;60.60;;;;;;5082171;28;20457;-57
2022/01/20 06:04:08;;;;;;;8.82;5.07;;;7.50;61.00;;;;;;5092971;28;20036;-64
2022/01/20 06:06:35;;;;;;;8.35;4.95;;;7.50;61.00;;;;;;5091787;28;20032;-66
2022/01/20 06:09:07;;;;;;;8.77;5.20;;;7.50;61.00;;;;;;5093087;28;20043;-64
2022/01/20 06:11:34;;;;;;;8.38;5.22;;;7.40;61.10;;;;;;5086468;28;20077;-63
2022/01/20 06:14:00;;;;;;;8.55;4.97;;;7.50;61.30;;;;;;5089988;28;20519;-63
2022/01/20 06:16:26;;;;;;;14.73;5.32;;;7.40;61.40;;;;;;5091691;28;20028;-64
2022/01/20 06:18:52;;;;;;;7.25;4.38;;;7.40;61.50;;;;;;5092304;28;20457;-63
2022/01/20 06:21:17;;;;;;;7.35;5.00;;;7.40;61.80;;;;;;5092809;28;20103;-64
2022/01/20 06:23:43;;;;;;;10.15;6.43;;;7.40;61.90;;;;;;5091781;28;20111;-62
2022/01/20 06:26:09;;;;;;;11.07;6.22;;;7.40;62.10;;;;;;5093139;28;20511;-63
2022/01/20 06:28:37;;;;;;;10.88;6.72;;;7.40;62.30;;;;;;5091591;28;20452;-63
2022/01/20 06:31:03;;;;;;;8.25;4.40;;;7.40;62.40;;;;;;5091880;28;20315;-61
2022/01/20 06:33:30;;;;;;;6.88;4.47;;;7.40;62.50;;;;;;5089233;28;20036;-64
2022/01/20 06:35:55;;;;;;;8.27;5.15;;;7.40;62.60;;;;;;5089974;28;20022;-62
2022/01/20 06:38:22;;;;;;;6.70;4.45;;;7.30;62.80;;;;;;5088964;28;20372;-62
2022/01/20 06:40:48;;;;;;;6.70;4.55;;;7.40;62.90;;;;;;5089599;28;20028;-61
2022/01/20 06:43:14;;;;;;;7.88;5.15;;;7.40;62.90;;;;;;5091680;28;20503;-61
2022/01/20 06:45:40;;;;;;;9.60;4.43;;;7.40;63.10;;;;;;5092189;28;20020;-62
2022/01/20 06:48:07;;;;;;;10.70;4.85;;;7.30;63.50;;;;;;5091708;28;20031;-62
2022/01/20 06:50:51;;;;;;;9.32;5.63;;;7.30;63.30;;;;;;5092371;28;20384;-63
2022/01/20 06:53:17;;;;;;;9.95;5.78;;;7.40;63.40;;;;;;5092220;28;20051;-63
2022/01/20 06:55:43;;;;;;;8.02;4.47;;;7.50;63.30;;;;;;5085964;28;20460;-62
2022/01/20 06:58:09;;;;;;;10.02;4.38;;;7.50;63.40;;;;;;5073436;28;20040;-64
2022/01/20 07:00:35;;;;;;;9.60;5.20;;;7.40;63.90;;;;;;5074685;28;20031;-64
2022/01/20 07:03:00;;;;;;;8.45;4.90;;;7.30;64.40;;;;;;5090627;28;20032;-62
2022/01/20 07:08:11;;;;;;;8.73;4.93;;;7.30;64.10;;;;;;5092161;28;20153;-63
2022/01/20 07:10:36;;;;;;;7.95;4.50;;;7.30;64.30;;;;;;5091208;28;20528;-62
2022/01/20 07:13:02;;;;;;;25.40;7.93;;;7.30;64.40;;;;;;5086516;28;20048;-62
2022/01/20 07:15:28;;;;;;;12.45;4.93;;;7.30;64.60;;;;;;5071624;28;20032;-62
2022/01/20 07:17:54;;;;;;;12.77;5.03;;;7.30;64.60;;;;;;5067491;28;20064;-62
2022/01/20 07:20:19;;;;;;;16.48;5.00;;;7.30;65.30;;;;;;5069656;28;20043;-62
2022/01/20 07:22:45;;;;;;;12.60;5.68;;;7.40;64.70;;;;;;5049251;28;20113;-61
2022/01/20 07:25:11;;;;;;;9.30;4.95;;;7.30;64.60;;;;;;5048770;28;20029;-62
2022/01/20 07:27:37;;;;;;;7.10;4.45;;;7.30;64.80;;;;;;5067855;28;20082;-62
2022/01/20 07:30:04;;;;;;;7.78;4.90;;;7.30;64.80;;;;;;5040402;28;20021;-62
2022/01/20 07:32:30;;;;;;;8.70;4.47;;;7.40;65.00;;;;;;5070883;28;20055;-62
2022/01/20 07:34:55;;;;;;;11.10;6.40;;;7.40;65.10;;;;;;5069523;28;20056;-62
2022/01/20 07:37:21;;;;;;;13.52;7.53;;;7.40;65.00;;;;;;5070084;28;20044;-63
2022/01/20 07:39:47;;;;;;;9.13;5.10;;;7.30;65.30;;;;;;5061817;28;20124;-60
2022/01/20 07:42:13;;;;;;;16.98;6.10;;;7.30;65.00;;;;;;5066133;28;20088;-65
2022/01/20 07:44:38;;;;;;;9.57;5.50;;;7.30;65.20;;;;;;5030875;28;20142;-65
2022/01/20 07:47:04;;;;;;;6.70;4.45;;;7.30;65.10;;;;;;5043342;28;20193;-65
2022/01/20 07:49:30;;;;;;;6.53;3.72;;;7.30;65.00;;;;;;5061402;28;20351;-65
2022/01/20 07:51:56;;;;;;;7.72;4.82;;;7.30;65.10;;;;;;5065420;28;20021;-67
2022/01/20 07:54:21;;;;;;;7.43;3.97;;;7.40;65.10;;;;;;5058651;28;20074;-65
2022/01/20 07:56:50;;;;;;;7.55;5.38;;;7.30;65.10;;;;;;5065334;28;20032;-62
2022/01/20 07:59:16;;;;;;;9.40;3.53;;;7.40;65.00;;;;;;5059368;28;20025;-64
2022/01/20 08:01:42;;;;;;;6.18;4.18;;;7.40;64.70;;;;;;5063347;28;20025;-70
2022/01/20 08:04:07;;;;;;;7.80;4.15;;;7.30;65.10;;;;;;5050367;28;20388;-70
2022/01/20 08:06:33;;;;;;;8.48;4.47;;;7.30;65.10;;;;;;5049685;28;20126;-68
2022/01/20 08:08:59;;;;;;;5.20;3.80;;;7.30;65.30;;;;;;5068408;28;20488;-65
2022/01/20 08:11:25;;;;;;;7.53;3.40;;;7.40;65.30;;;;;;5066121;28;20394;-71
2022/01/20 08:13:51;;;;;;;5.63;3.55;;;7.40;65.30;;;;;;5076073;28;20045;-69
2022/01/20 08:16:16;;;;;;;6.25;3.83;;;7.40;65.40;;;;;;5090925;28;20382;-72
2022/01/20 08:18:42;;;;;;;7.13;3.47;;;7.40;65.40;;;;;;5090487;28;20059;-65
2022/01/20 08:21:08;;;;;;;4.80;3.40;;;7.30;65.50;;;;;;5089476;28;20024;-67
2022/01/20 08:23:33;;;;;;;6.28;3.80;;;7.40;65.40;;;;;;5089633;28;20036;-66
2022/01/20 08:25:59;;;;;;;5.80;3.70;;;7.50;65.30;;;;;;5088369;28;20024;-68
2022/01/20 08:28:25;;;;;;;6.13;3.22;;;7.50;65.30;;;;;;5089156;28;20123;-67
2022/01/20 08:30:51;;;;;;;6.78;3.50;;;7.50;65.10;;;;;;5093672;28;20024;-62
2022/01/20 08:33:17;;;;;;;4.80;2.95;;;7.60;65.10;;;;;;5093314;28;20028;-68
2022/01/20 08:35:43;;;;;;;4.68;3.15;;;7.60;64.90;;;;;;5092649;28;20035;-68
2022/01/20 08:38:09;;;;;;;10.30;3.53;;;7.60;64.90;;;;;;5093428;28;20040;-70
2022/01/20 08:40:36;;;;;;;6.10;3.40;;;7.60;64.80;;;;;;5091407;28;20426;-64
2022/01/20 08:43:03;;;;;;;6.00;3.60;;;7.70;64.60;;;;;;5078099;28;20034;-66
2022/01/20 08:45:31;;;;;;;4.05;2.85;;;7.60;64.60;;;;;;5093130;28;20081;-65
2022/01/20 08:47:59;;;;;;;5.68;3.78;;;7.60;64.70;;;;;;5093692;28;20024;-67
2022/01/20 08:50:27;;;;;;;5.88;3.03;;;7.70;64.80;;;;;;5092949;28;20445;-66
2022/01/20 08:52:54;;;;;;;7.55;3.30;;;7.70;64.70;;;;;;5092940;28;20119;-69
2022/01/20 08:55:20;;;;;;;11.50;3.53;;;7.60;64.80;;;;;;5094038;28;20021;-72
2022/01/20 08:57:46;;;;;;;9.52;3.80;;;7.60;64.80;;;;;;5092471;28;20036;-70
2022/01/20 09:00:13;;;;;;;9.27;3.55;;;7.70;64.80;;;;;;5091481;28;20123;-69
2022/01/20 09:02:39;;;;;;;5.57;3.63;;;7.70;64.70;;;;;;5086748;28;20027;-69
2022/01/20 09:05:05;;;;;;;8.63;4.70;;;7.70;64.40;;;;;;5092802;28;20400;-69
2022/01/20 09:07:31;;;;;;;6.45;3.38;;;7.70;64.40;;;;;;5081616;28;20032;-70
2022/01/20 09:09:59;;;;;;;6.57;3.00;;;7.80;64.40;;;;;;5080361;28;20028;-71
2022/01/20 09:15:28;;;;;;;11.30;5.18;;;7.70;64.40;;;;;;5093253;28;20094;-69
2022/01/20 09:17:59;;;;;;;26.85;10.32;;;7.60;64.50;;;;;;5074964;28;20028;-70
2022/01/20 09:20:26;;;;;;;5.25;3.33;;;7.60;64.60;;;;;;5093561;28;20039;-70
2022/01/20 09:22:52;;;;;;;5.15;3.10;;;7.50;64.60;;;;;;5074753;28;20024;-68
2022/01/20 09:25:18;;;;;;;4.60;3.22;;;7.50;64.80;;;;;;5093368;28;20020;-69
2022/01/20 09:27:44;;;;;;;5.88;3.67;;;7.50;65.00;;;;;;5075758;28;20036;-69
2022/01/20 09:30:17;;;;;;;6.82;3.80;;;7.60;64.90;;;;;;5092912;28;20224;-70
2022/01/20 09:32:43;;;;;;;11.43;3.50;;;7.70;64.70;;;;;;5075210;28;20035;-70
2022/01/20 09:35:09;;;;;;;7.00;3.10;;;7.90;64.00;;;;;;5093683;28;20028;-68
2022/01/20 09:37:38;;;;;;;7.10;3.50;;;8.00;63.40;;;;;;5075812;28;20128;-69
2022/01/20 09:40:04;;;;;;;5.05;3.30;;;8.10;63.00;;;;;;5093150;28;20028;-70
2022/01/20 09:42:33;;;;;;;10.15;3.38;;;8.10;63.00;;;;;;5093197;28;20085;-70
2022/01/20 09:44:59;;;;;;;5.10;3.20;;;8.20;62.30;;;;;;5073226;28;20036;-70
2022/01/20 09:47:25;;;;;;;4.03;2.92;;;8.20;62.00;;;;;;5075468;28;20024;-70
2022/01/20 09:49:53;;;;;;;4.68;3.30;;;8.30;62.00;;;;;;5072022;28;20034;-70
2022/01/20 09:52:19;;;;;;;4.28;3.08;;;8.40;61.80;;;;;;5077158;28;20024;-71
2022/01/20 09:54:45;;;;;;;6.55;3.28;;;8.40;61.60;;;;;;5093279;28;20047;-70
2022/01/20 09:57:10;;;;;;;6.85;3.40;;;8.50;61.10;;;;;;5089869;28;20040;-70
2022/01/20 09:59:36;;;;;;;5.20;2.80;;;8.60;61.00;;;;;;5092308;28;20458;-69
2022/01/20 10:02:07;;;;;;;4.32;3.00;;;8.70;60.40;;;;;;5074272;28;20024;-70
2022/01/20 10:04:35;;;;;;;9.85;3.22;;;8.70;60.00;;;;;;5087417;28;20028;-70
2022/01/20 10:07:01;;;;;;;5.07;3.10;;;8.60;60.40;;;;;;5092635;28;20035;-72
2022/01/20 10:09:33;;;;;;;9.50;2.97;;;8.70;60.10;;;;;;5093288;28;20028;-71
2022/01/20 10:11:59;;;;;;;4.07;2.75;;;8.60;59.90;;;;;;5091899;28;20032;-70
2022/01/20 10:14:25;;;;;;;4.32;2.88;;;8.60;60.00;;;;;;5078555;28;20124;-71
2022/01/20 10:16:52;;;;;;;4.63;2.85;;;8.60;60.40;;;;;;5073533;28;20508;-70
2022/01/20 10:19:29;;;;;;;3.85;2.50;;;8.70;60.30;;;;;;5054530;28;20021;-73
2022/01/20 10:21:55;;;;;;;7.07;2.90;;;8.90;59.90;;;;;;5071765;28;20093;-72
2022/01/20 10:24:21;;;;;;;6.18;3.15;;;8.80;59.90;;;;;;5071747;28;20020;-72
2022/01/20 10:26:50;;;;;;;5.75;3.13;;;8.90;60.10;;;;;;5054417;28;20052;-72
2022/01/20 10:29:16;;;;;;;6.47;3.40;;;8.80;59.70;;;;;;5054199;28;20051;-71
2022/01/20 10:31:46;;;;;;;5.72;3.28;;;8.70;60.20;;;;;;5054106;28;20024;-69
2022/01/20 10:34:31;;;;;;;8.52;3.28;;;8.60;60.40;;;;;;5071754;28;20094;-69
2022/01/20 10:37:14;;;;;;;8.50;3.13;;;8.70;60.50;;;;;;5070863;28;20028;-68
2022/01/20 10:39:42;;;;;;;6.80;3.03;;;8.80;60.50;;;;;;5053888;28;20111;-69
2022/01/20 10:42:12;;;;;;;6.75;4.85;;;8.80;59.80;;;;;;5052997;28;20025;-67
2022/01/20 10:44:47;;;;;;;7.13;3.05;;;8.60;60.30;;;;;;5072150;28;20028;-67
2022/01/20 10:47:36;;;;;;;7.35;2.97;;;8.50;61.00;;;;;;5071522;28;20032;-68
2022/01/20 10:50:17;;;;;;;14.02;3.28;;;8.50;61.20;;;;;;5053222;28;20082;-67
2022/01/20 10:52:44;;;;;;;7.35;2.90;;;8.60;61.20;;;;;;5070284;28;20031;-68
2022/01/20 10:55:23;;;;;;;5.05;2.75;;;8.50;61.10;;;;;;5053254;28;20032;-69
2022/01/20 10:57:54;;;;;;;6.90;3.00;;;8.40;61.10;;;;;;5054614;28;20036;-68
2022/01/20 11:00:23;;;;;;;5.63;2.75;;;8.30;61.50;;;;;;5072382;28;20461;-71
2022/01/20 11:02:55;;;;;;;7.40;2.97;;;8.40;61.50;;;;;;5072229;28;20025;-72
2022/01/20 11:05:22;;;;;;;4.88;3.30;;;8.70;60.30;;;;;;5072077;28;20028;-72
2022/01/20 11:07:48;;;;;;;4.68;2.70;;;8.80;60.00;;;;;;5071473;28;20017;-72
2022/01/20 11:10:17;;;;;;;5.65;2.97;;;8.70;59.90;;;;;;5071350;28;20020;-71
2022/01/20 11:12:43;;;;;;;5.35;2.90;;;8.70;60.20;;;;;;5051634;28;20017;-66
2022/01/20 11:15:15;;;;;;;7.57;2.75;;;9.10;59.10;;;;;;5058078;28;20032;-69
2022/01/20 11:17:42;;;;;;;7.10;2.92;;;9.10;57.90;;;;;;5074894;28;20111;-68
2022/01/20 11:20:13;;;;;;;4.80;3.00;;;9.10;58.10;;;;;;5071207;28;20032;-67
2022/01/20 11:23:01;;;;;;;6.80;3.00;;;9.00;57.40;;;;;;5074251;28;20029;-67
2022/01/20 11:25:29;;;;;;;5.13;2.80;;;8.90;58.70;;;;;;5072360;28;20119;-66
2022/01/20 11:28:07;;;;;;;5.82;3.50;;;8.80;58.30;;;;;;5090908;28;20058;-66
2022/01/20 11:30:35;;;;;;;4.57;2.83;;;8.70;58.80;;;;;;5073431;28;20426;-67
2022/01/20 11:33:06;;;;;;;6.90;3.17;;;8.70;59.00;;;;;;5072870;28;20151;-64
2022/01/20 11:35:39;;;;;;;7.18;3.15;;;8.70;58.40;;;;;;5073143;28;20024;-66
2022/01/20 11:38:05;;;;;;;12.32;3.67;;;8.70;58.30;;;;;;5091094;28;20036;-68
2022/01/20 11:40:32;;;;;;;7.00;3.08;;;8.70;57.90;;;;;;5074004;28;20030;-66
2022/01/20 11:43:04;;;;;;;9.32;3.45;;;8.70;59.50;;;;;;5091369;28;20016;-63
2022/01/20 11:45:33;;;;;;;13.93;3.30;;;8.70;57.90;;;;;;5091851;28;20111;-65
2022/01/20 11:48:31;;;;;;;7.18;3.58;;;8.70;58.00;;;;;;5073393;28;20020;-67
2022/01/20 11:51:06;;;;;;;6.88;2.95;;;8.70;57.30;;;;;;5034775;28;20043;-69
2022/01/20 11:53:33;;;;;;;6.70;3.92;;;8.70;57.00;;;;;;5070892;28;20035;-70
2022/01/20 11:55:59;;;;;;;8.57;3.13;;;8.80;56.30;;;;;;5071590;28;20078;-67
2022/01/20 11:58:26;;;;;;;9.77;2.92;;;8.90;56.30;;;;;;5079764;28;20033;-72
2022/01/20 12:01:01;;;;;;;6.57;2.90;;;9.00;56.10;;;;;;5064568;28;20521;-70
2022/01/20 12:03:28;;;;;;;11.30;2.75;;;9.80;55.80;;;;;;5071604;28;20100;-70
2022/01/20 12:06:02;;;;;;;6.85;2.38;;;10.60;51.50;;;;;;5090930;28;20028;-67
2022/01/20 12:08:28;;;;;;;6.50;2.50;;;10.40;51.40;;;;;;5090665;28;20876;-69
2022/01/20 12:11:19;;;;;;;5.63;2.85;;;10.10;51.50;;;;;;5091124;28;20397;-66
2022/01/20 12:13:46;;;;;;;12.18;2.90;;;9.90;51.50;;;;;;5081543;28;20059;-68
2022/01/20 12:16:36;;;;;;;10.10;2.83;;;9.90;52.10;;;;;;5052388;28;20029;-68
2022/01/20 12:19:04;;;;;;;5.38;2.70;;;9.90;51.50;;;;;;5052489;28;20036;-64
2022/01/20 12:21:31;;;;;;;5.90;2.53;;;9.90;51.50;;;;;;5048847;28;20036;-63
2022/01/20 12:23:58;;;;;;;8.25;2.42;;;9.70;51.90;;;;;;5050463;28;20105;-62
2022/01/20 12:26:24;;;;;;;8.40;2.80;;;9.60;51.70;;;;;;5069593;28;20246;-63
2022/01/20 12:29:05;;;;;;;26.35;3.60;;;9.50;52.70;;;;;;5069820;28;20374;-61
2022/01/20 12:31:32;;;;;;;9.98;2.75;;;9.30;52.40;;;;;;5070201;28;20032;-65
2022/01/20 12:33:58;;;;;;;6.20;2.92;;;9.20;52.50;;;;;;5052071;28;20036;-60
2022/01/20 12:36:24;;;;;;;8.52;2.38;;;9.20;52.50;;;;;;5051698;28;20238;-63
2022/01/20 12:38:52;;;;;;;9.52;2.42;;;9.10;52.90;;;;;;5070554;28;20029;-63
2022/01/20 12:41:22;;;;;;;6.78;2.35;;;9.00;53.70;;;;;;5058327;28;20047;-63
2022/01/20 12:43:55;;;;;;;10.48;2.22;;;9.00;53.30;;;;;;5070328;28;20028;-63
2022/01/20 12:46:41;;;;;;;8.35;3.05;;;9.10;53.60;;;;;;5068937;28;20451;-63
2022/01/20 12:49:13;;;;;;;13.38;2.80;;;9.20;53.20;;;;;;5058594;28;20040;-64
2022/01/20 12:51:53;;;;;;;13.43;2.75;;;9.20;55.00;;;;;;5070548;28;20040;-63
2022/01/20 12:54:30;;;;;;;5.93;2.83;;;9.00;54.00;;;;;;5069348;28;20108;-62
2022/01/20 12:57:02;;;;;;;8.82;2.60;;;8.90;55.10;;;;;;5049959;28;20104;-61
2022/01/20 12:59:40;;;;;;;6.22;2.92;;;8.90;54.70;;;;;;5051008;28;20116;-64
2022/01/20 13:02:12;;;;;;;7.78;2.80;;;8.80;54.60;;;;;;5069618;28;20025;-68
2022/01/20 13:04:39;;;;;;;12.80;3.63;;;8.80;54.70;;;;;;5051303;28;20028;-61
2022/01/20 13:07:09;;;;;;;10.27;2.88;;;8.70;54.90;;;;;;5051682;28;20036;-62
2022/01/20 13:09:44;;;;;;;9.50;3.45;;;8.80;54.80;;;;;;5050131;28;20036;-63
2022/01/20 13:12:18;;;;;;;4.10;2.42;;;8.80;55.10;;;;;;5050917;28;20033;-63
2022/01/20 13:14:46;;;;;;;;;;;8.80;54.60;;;;;;5060501;28;20116;-63
2022/01/20 13:17:18;;;;;;;11.75;2.53;;;8.90;54.30;;;;;;5090953;28;20333;-62
2022/01/20 13:19:47;;;;;;;6.82;2.60;;;8.90;54.60;;;;;;5072390;28;20020;-63
2022/01/20 13:22:37;;;;;;;5.53;2.30;;;8.80;54.70;;;;;;5088853;28;20439;-62
2022/01/20 13:25:09;;;;;;;8.70;2.92;;;8.80;55.50;;;;;;5093869;28;20035;-62
2022/01/20 13:27:36;;;;;;;7.40;2.60;;;8.80;55.70;;;;;;5093241;28;20499;-62
2022/01/20 13:30:04;;;;;;;11.57;3.10;;;8.70;55.20;;;;;;5094074;28;20027;-62
2022/01/20 13:32:31;;;;;;;5.53;2.80;;;8.80;55.50;;;;;;5092554;28;20024;-62
2022/01/20 13:34:59;;;;;;;6.00;2.83;;;8.90;55.10;;;;;;5092216;28;20155;-63
2022/01/20 13:37:26;;;;;;;9.77;2.50;;;9.00;54.00;;;;;;5092993;28;20043;-64
2022/01/20 13:39:57;;;;;;;15.18;3.13;;;9.00;54.50;;;;;;5091903;28;20172;-63
2022/01/20 13:42:38;;;;;;;12.55;3.22;;;9.00;53.80;;;;;;5091017;28;20036;-62
2022/01/20 13:45:13;;;;;;;9.20;2.65;;;9.00;53.70;;;;;;5092341;28;20362;-62
2022/01/20 13:47:54;;;;;;;8.10;2.38;;;9.00;53.80;;;;;;5093572;28;20031;-62
2022/01/20 13:50:24;;;;;;;12.10;2.72;;;9.00;53.40;;;;;;5093167;28;20103;-62
2022/01/20 13:52:51;;;;;;;7.60;3.08;;;9.00;53.20;;;;;;5091774;28;20097;-62
2022/01/20 13:55:26;;;;;;;9.52;2.60;;;9.10;53.00;;;;;;5092078;28;20021;-62
2022/01/20 13:57:52;;;;;;;8.15;2.53;;;9.20;52.50;;;;;;5093116;28;20040;-62
2022/01/20 14:00:39;;;;;;;14.52;3.20;;;9.20;52.30;;;;;;5090875;28;20469;-62
2022/01/20 14:03:08;;;;;;;13.77;2.78;;;9.00;52.10;;;;;;5093308;28;20028;-62
2022/01/20 14:05:34;;;;;;;8.95;1.83;;;8.90;52.30;;;;;;5090442;28;20047;-62
2022/01/20 14:08:02;;;;;;;6.55;1.58;;;8.80;52.20;;;;;;5092034;28;20074;-63
2022/01/20 14:10:29;;;;;;;15.05;1.98;;;8.60;52.50;;;;;;5090785;28;20043;-62